createdAt,value
2018-08-28T00:01:09.296Z,4.43
2018-08-28T00:03:39.649Z,4.83
2018-08-28T00:06:10.189Z,5.00
2018-08-28T00:08:40.541Z,4.40
2018-08-28T00:11:11.039Z,4.40
2018-08-28T00:13:41.439Z,4.40
2018-08-28T00:16:11.800Z,4.30
2018-08-28T00:18:42.309Z,4.50
2018-08-28T00:21:12.857Z,4.80
2018-08-28T00:23:43.531Z,5.37
2018-08-28T00:26:14.151Z,4.53
2018-08-28T00:28:44.833Z,4.20
2018-08-28T00:31:15.399Z,5.10
2018-08-28T00:33:45.889Z,3.80
2018-08-28T00:36:16.388Z,4.53
2018-08-28T00:38:47.024Z,3.77
2018-08-28T00:41:17.608Z,4.80
2018-08-28T00:43:48.288Z,4.10
2018-08-28T00:46:18.831Z,4.60
2018-08-28T00:48:49.421Z,4.63
2018-08-28T00:51:20.139Z,5.43
2018-08-28T00:53:50.717Z,4.60
2018-08-28T00:56:21.473Z,4.33
2018-08-28T00:58:52.101Z,4.80
2018-08-28T01:01:22.727Z,4.47
2018-08-28T01:03:53.435Z,4.17
2018-08-28T01:06:23.975Z,4.60
2018-08-28T01:08:54.615Z,4.40
2018-08-28T01:11:25.270Z,4.83
2018-08-28T01:13:56.048Z,4.90
2018-08-28T01:16:26.661Z,5.30
2018-08-28T01:18:57.269Z,5.43
2018-08-28T01:21:27.736Z,4.70
2018-08-28T01:23:58.381Z,4.63
2018-08-28T01:26:29.002Z,5.10
2018-08-28T01:28:59.650Z,5.90
2018-08-28T01:31:30.091Z,5.20
2018-08-28T01:34:00.464Z,5.27
2018-08-28T01:36:31.020Z,5.40
2018-08-28T01:39:01.537Z,5.33
2018-08-28T01:41:31.981Z,5.50
2018-08-28T01:44:02.200Z,5.27
2018-08-28T01:46:32.525Z,5.67
2018-08-28T01:49:02.834Z,5.73
2018-08-28T01:51:33.425Z,4.93
2018-08-28T01:54:03.914Z,5.80
2018-08-28T01:56:34.386Z,5.77
2018-08-28T01:59:04.891Z,5.50
2018-08-28T02:01:35.137Z,5.60
2018-08-28T02:04:05.739Z,6.33
2018-08-28T02:06:36.191Z,5.90
2018-08-28T02:09:08.406Z,5.00
2018-08-28T02:11:38.896Z,5.40
2018-08-28T02:14:09.276Z,5.70
2018-08-28T02:16:39.653Z,5.50
2018-08-28T02:19:10.056Z,5.63
2018-08-28T02:21:41.112Z,6.17
2018-08-28T02:24:11.664Z,4.97
2018-08-28T02:26:42.290Z,5.97
2018-08-28T02:29:12.895Z,5.33
2018-08-28T02:31:43.252Z,4.77
2018-08-28T02:34:14.013Z,5.10
2018-08-28T02:36:44.513Z,6.00
2018-08-28T02:39:14.917Z,6.20
2018-08-28T02:41:45.140Z,5.80
2018-08-28T02:44:15.488Z,5.33
2018-08-28T02:46:45.737Z,5.60
2018-08-28T02:49:16.250Z,6.07
2018-08-28T02:51:46.459Z,6.10
2018-08-28T02:54:17.007Z,5.57
2018-08-28T02:56:47.458Z,5.13
2018-08-28T02:59:17.872Z,6.40
2018-08-28T03:01:48.322Z,6.27
2018-08-28T03:04:18.483Z,6.33
2018-08-28T03:06:49.005Z,5.63
2018-08-28T03:09:19.288Z,5.80
2018-08-28T03:11:49.649Z,5.13
2018-08-28T03:14:20.105Z,5.63
2018-08-28T03:16:50.482Z,5.10
2018-08-28T03:19:20.933Z,4.70
2018-08-28T03:21:51.237Z,4.60
2018-08-28T03:24:21.724Z,5.43
2018-08-28T03:26:52.189Z,5.20
2018-08-28T03:29:22.623Z,5.30
2018-08-28T03:31:53.765Z,5.70
2018-08-28T03:34:24.098Z,5.27
2018-08-28T03:36:54.803Z,5.50
2018-08-28T03:39:25.159Z,5.10
2018-08-28T03:41:55.565Z,5.00
2018-08-28T03:44:25.927Z,5.50
2018-08-28T03:46:56.273Z,5.70
2018-08-28T03:49:26.702Z,5.73
2018-08-28T03:51:57.043Z,5.50
2018-08-28T03:54:27.584Z,5.40
2018-08-28T03:56:57.961Z,4.90
2018-08-28T03:59:28.300Z,5.27
2018-08-28T04:01:58.744Z,4.60
2018-08-28T04:04:29.165Z,5.40
2018-08-28T04:06:59.635Z,5.17
2018-08-28T04:09:29.982Z,5.33
2018-08-28T04:12:00.383Z,5.07
2018-08-28T04:14:30.684Z,4.90
2018-08-28T04:17:01.293Z,4.30
2018-08-28T04:19:31.518Z,5.00
2018-08-28T04:22:01.984Z,5.03
2018-08-28T04:24:32.272Z,5.07
2018-08-28T04:27:02.797Z,5.00
2018-08-28T04:29:33.128Z,4.60
2018-08-28T04:32:03.877Z,5.07
2018-08-28T04:34:34.214Z,5.00
2018-08-28T04:37:04.720Z,4.70
2018-08-28T04:39:35.335Z,5.10
2018-08-28T04:42:05.843Z,4.23
2018-08-28T04:44:36.171Z,5.47
2018-08-28T04:47:06.512Z,4.53
2018-08-28T04:49:36.784Z,5.30
2018-08-28T04:52:07.404Z,4.73
2018-08-28T04:54:37.780Z,4.83
2018-08-28T04:57:08.261Z,4.63
2018-08-28T04:59:38.740Z,5.33
2018-08-28T05:02:09.100Z,5.33
2018-08-28T05:04:40.256Z,5.07
2018-08-28T05:07:10.595Z,5.73
2018-08-28T05:09:41.059Z,5.13
2018-08-28T05:12:11.425Z,5.80
2018-08-28T05:14:41.635Z,4.87
2018-08-28T05:17:12.021Z,4.60
2018-08-28T05:19:42.500Z,5.33
2018-08-28T05:22:13.061Z,4.30
2018-08-28T05:24:43.650Z,5.27
2018-08-28T05:27:14.172Z,4.80
2018-08-28T05:29:44.600Z,5.73
2018-08-28T05:32:15.068Z,5.40
2018-08-28T05:34:45.859Z,5.47
2018-08-28T05:37:16.386Z,4.53
2018-08-28T05:39:46.776Z,4.63
2018-08-28T05:42:17.329Z,4.30
2018-08-28T05:44:47.828Z,6.00
2018-08-28T05:47:18.207Z,4.43
2018-08-28T05:49:48.580Z,4.57
2018-08-28T05:52:19.062Z,4.30
2018-08-28T05:54:49.574Z,4.60
2018-08-28T05:57:19.944Z,4.93
2018-08-28T05:59:50.528Z,4.13
2018-08-28T06:02:20.892Z,4.40
2018-08-28T06:04:51.379Z,4.60
2018-08-28T06:07:21.747Z,4.20
2018-08-28T06:09:52.023Z,4.37
2018-08-28T06:12:22.526Z,4.10
2018-08-28T06:14:53.116Z,4.87
2018-08-28T06:17:23.590Z,4.97
2018-08-28T06:19:53.917Z,4.20
2018-08-28T06:22:24.376Z,4.77
2018-08-28T06:24:54.690Z,4.70
2018-08-28T06:27:25.198Z,4.70
2018-08-28T06:29:55.786Z,3.77
2018-08-28T06:32:26.160Z,4.33
2018-08-28T06:34:56.393Z,3.53
2018-08-28T06:37:27.035Z,4.10
2018-08-28T06:39:57.414Z,3.77
2018-08-28T06:42:28.004Z,4.00
2018-08-28T06:44:58.329Z,3.50
2018-08-28T06:47:28.940Z,5.50
2018-08-28T06:49:59.544Z,3.97
2018-08-28T06:52:30.110Z,3.70
2018-08-28T06:55:00.604Z,3.97
2018-08-28T06:57:30.967Z,3.40
2018-08-28T07:00:01.403Z,3.50
2018-08-28T07:02:31.992Z,3.20
2018-08-28T07:05:02.519Z,3.90
2018-08-28T07:07:32.987Z,3.10
2018-08-28T07:10:03.350Z,4.30
2018-08-28T07:12:33.740Z,3.87
2018-08-28T07:15:04.065Z,3.40
2018-08-28T07:17:34.426Z,4.07
2018-08-28T07:20:04.956Z,3.30
2018-08-28T07:22:35.371Z,3.33
2018-08-28T07:25:05.891Z,3.43
2018-08-28T07:27:36.441Z,3.73
2018-08-28T07:30:06.711Z,3.77
2018-08-28T07:32:36.748Z,4.13
2018-08-28T07:35:06.956Z,3.57
2018-08-28T07:37:37.052Z,3.97
2018-08-28T07:40:07.381Z,4.00
2018-08-28T07:42:37.474Z,2.80
2018-08-28T07:45:08.772Z,4.10
2018-08-28T07:47:39.266Z,3.47
2018-08-28T07:50:09.821Z,3.67
2018-08-28T07:52:40.324Z,3.37
2018-08-28T07:55:10.879Z,3.10
2018-08-28T07:57:41.149Z,3.10
2018-08-28T08:00:11.583Z,2.93
2018-08-28T08:02:41.911Z,2.97
2018-08-28T08:05:12.384Z,2.50
2018-08-28T08:07:42.696Z,2.57
2018-08-28T08:10:13.009Z,3.63
2018-08-28T08:12:43.429Z,3.03
2018-08-28T08:15:13.892Z,2.87
2018-08-28T08:17:44.240Z,2.63
2018-08-28T08:20:14.615Z,3.10
2018-08-28T08:22:45.044Z,2.60
2018-08-28T08:25:15.539Z,2.40
2018-08-28T08:27:45.849Z,2.83
2018-08-28T08:30:16.466Z,3.07
2018-08-28T08:32:46.809Z,3.30
2018-08-28T08:35:17.222Z,2.67
2018-08-28T08:37:47.672Z,2.23
2018-08-28T08:40:18.197Z,2.53
2018-08-28T08:42:48.645Z,3.40
2018-08-28T08:45:19.384Z,2.90
2018-08-28T08:47:49.843Z,2.80
2018-08-28T08:50:20.186Z,2.30
2018-08-28T08:52:50.583Z,2.57
2018-08-28T08:55:21.049Z,2.23
2018-08-28T08:57:51.448Z,2.77
2018-08-28T09:00:21.827Z,2.20
2018-08-28T09:02:52.292Z,2.63
2018-08-28T09:05:22.547Z,3.00
2018-08-28T09:07:53.052Z,2.13
2018-08-28T09:10:23.417Z,2.60
2018-08-28T09:12:53.919Z,2.33
2018-08-28T09:15:24.527Z,2.17
2018-08-28T09:17:54.880Z,2.83
2018-08-28T09:20:25.297Z,1.97
2018-08-28T09:22:55.728Z,2.00
2018-08-28T09:25:26.002Z,1.93
2018-08-28T09:27:56.472Z,2.00
2018-08-28T09:30:26.796Z,1.80
2018-08-28T09:32:57.222Z,1.93
2018-08-28T09:35:27.632Z,1.77
2018-08-28T09:37:58.010Z,1.90
2018-08-28T09:40:28.536Z,2.20
2018-08-28T09:42:58.913Z,2.10
2018-08-28T09:45:29.188Z,1.90
2018-08-28T09:47:59.621Z,2.23
2018-08-28T09:50:30.098Z,1.90
2018-08-28T09:53:00.601Z,1.70
2018-08-28T09:55:31.196Z,2.27
2018-08-28T09:58:01.404Z,2.50
2018-08-28T10:00:31.943Z,2.00
2018-08-28T10:03:02.294Z,2.23
2018-08-28T10:05:32.635Z,2.13
2018-08-28T10:08:02.922Z,2.30
2018-08-28T10:10:33.356Z,2.20
2018-08-28T10:13:03.603Z,2.47
2018-08-28T10:15:33.926Z,3.10
2018-08-28T10:18:04.237Z,2.40
2018-08-28T10:20:34.640Z,2.43
2018-08-28T10:23:05.293Z,1.80
2018-08-28T10:25:35.718Z,2.27
2018-08-28T10:28:06.459Z,2.20
2018-08-28T10:30:36.693Z,2.03
2018-08-28T10:33:07.233Z,2.23
2018-08-28T10:35:37.661Z,2.00
2018-08-28T10:38:08.343Z,2.10
2018-08-28T10:40:38.826Z,2.60
2018-08-28T10:43:09.337Z,2.40
2018-08-28T10:45:39.712Z,3.10
2018-08-28T10:48:10.132Z,2.57
2018-08-28T10:50:40.484Z,2.63
2018-08-28T10:53:10.973Z,2.47
2018-08-28T10:55:41.380Z,2.40
2018-08-28T10:58:11.760Z,3.20
2018-08-28T11:00:42.013Z,2.50
2018-08-28T11:03:12.348Z,2.50
2018-08-28T11:05:42.853Z,2.63
2018-08-28T11:08:13.212Z,1.97
2018-08-28T11:10:43.588Z,2.40
2018-08-28T11:13:13.939Z,2.63
2018-08-28T11:15:44.343Z,2.03
2018-08-28T11:18:14.881Z,2.80
2018-08-28T11:20:45.324Z,2.37
2018-08-28T11:23:15.706Z,2.13
2018-08-28T11:25:46.173Z,2.40
2018-08-28T11:28:16.676Z,1.90
2018-08-28T11:30:47.128Z,2.30
2018-08-28T11:33:17.798Z,1.83
2018-08-28T11:35:48.174Z,2.30
2018-08-28T11:38:18.444Z,2.13
2018-08-28T11:40:48.951Z,2.20
2018-08-28T11:43:19.445Z,2.53
2018-08-28T11:45:49.943Z,1.90
2018-08-28T11:48:20.415Z,2.30
2018-08-28T11:50:50.913Z,2.07
2018-08-28T11:53:21.400Z,2.80
2018-08-28T11:55:51.898Z,2.97
2018-08-28T11:58:22.422Z,2.60
2018-08-28T12:00:53.067Z,2.27
2018-08-28T12:03:23.795Z,2.13
2018-08-28T12:05:54.378Z,2.10
2018-08-28T12:08:24.744Z,2.50
2018-08-28T12:10:55.114Z,2.60
2018-08-28T12:13:25.575Z,2.30
2018-08-28T12:15:56.102Z,2.30
2018-08-28T12:18:26.712Z,2.30
2018-08-28T12:20:57.351Z,2.50
2018-08-28T12:23:27.901Z,2.83
2018-08-28T12:25:58.474Z,2.47
2018-08-28T12:28:29.044Z,2.40
2018-08-28T12:30:59.551Z,2.97
2018-08-28T12:33:30.020Z,2.90
2018-08-28T12:36:00.502Z,2.10
2018-08-28T12:38:30.944Z,2.53
2018-08-28T12:41:01.528Z,3.50
2018-08-28T12:43:32.113Z,3.17
2018-08-28T12:46:02.705Z,3.20
2018-08-28T12:48:33.176Z,3.10
2018-08-28T12:51:03.675Z,3.07
2018-08-28T12:53:34.028Z,3.20
2018-08-28T12:56:04.488Z,2.60
2018-08-28T12:58:34.784Z,3.07
2018-08-28T13:01:05.076Z,3.03
2018-08-28T13:03:35.520Z,3.33
2018-08-28T13:06:06.202Z,3.40
2018-08-28T13:08:36.690Z,3.13
2018-08-28T13:11:07.547Z,3.33
2018-08-28T13:13:38.241Z,3.10
2018-08-28T13:16:08.867Z,3.30
2018-08-28T13:18:39.356Z,3.60
2018-08-28T13:21:09.572Z,3.30
2018-08-28T13:23:40.026Z,3.10
2018-08-28T13:26:10.601Z,3.90
2018-08-28T13:28:41.146Z,3.23
2018-08-28T13:31:11.511Z,3.50
2018-08-28T13:33:41.888Z,3.73
2018-08-28T13:36:12.269Z,3.27
2018-08-28T13:38:42.801Z,3.70
2018-08-28T13:41:13.254Z,3.07
2018-08-28T13:43:43.712Z,3.47
2018-08-28T13:46:14.129Z,3.00
2018-08-28T13:48:44.587Z,2.90
2018-08-28T13:51:15.617Z,2.77
2018-08-28T13:53:46.597Z,3.70
2018-08-28T13:56:16.929Z,4.30
2018-08-28T13:58:47.297Z,2.90
2018-08-28T14:01:17.877Z,3.67
2018-08-28T14:03:48.224Z,3.10
2018-08-28T14:06:18.706Z,2.80
2018-08-28T14:08:49.310Z,2.87
2018-08-28T14:11:19.872Z,3.57
2018-08-28T14:13:50.400Z,2.87
2018-08-28T14:16:21.011Z,2.97
2018-08-28T14:18:51.323Z,2.70
2018-08-28T14:21:21.773Z,3.20
2018-08-28T14:23:52.279Z,3.40
2018-08-28T14:26:22.864Z,3.17
2018-08-28T14:28:54.121Z,3.40
2018-08-28T14:31:24.707Z,3.60
2018-08-28T14:33:55.139Z,3.60
2018-08-28T14:36:25.633Z,4.07
2018-08-28T14:38:56.073Z,4.07
2018-08-28T14:41:26.422Z,4.27
2018-08-28T14:43:56.928Z,3.73
2018-08-28T14:46:27.514Z,3.80
2018-08-28T14:48:58.036Z,4.20
2018-08-28T14:51:28.612Z,4.23
2018-08-28T14:54:02.069Z,4.30
2018-08-28T14:56:32.426Z,3.87
2018-08-28T14:59:02.797Z,4.03
2018-08-28T15:01:33.394Z,4.37
2018-08-28T15:04:03.909Z,3.50
2018-08-28T15:06:34.353Z,3.90
2018-08-28T15:09:05.513Z,3.40
2018-08-28T15:11:36.288Z,4.30
2018-08-28T15:14:06.836Z,4.00
2018-08-28T15:16:37.118Z,3.67
2018-08-28T15:19:07.922Z,3.40
2018-08-28T15:21:38.311Z,4.13
2018-08-28T15:24:08.822Z,3.73
2018-08-28T15:26:39.321Z,4.13
2018-08-28T15:29:09.625Z,5.00
2018-08-28T15:31:40.000Z,4.60
2018-08-28T15:34:10.499Z,3.77
2018-08-28T15:36:41.072Z,3.10
2018-08-28T15:39:11.544Z,3.93
2018-08-28T15:41:41.924Z,3.70
2018-08-28T15:44:12.331Z,4.27
2018-08-28T15:46:42.723Z,4.63
2018-08-28T15:49:13.085Z,3.63
2018-08-28T15:51:43.667Z,3.83
2018-08-28T15:54:14.248Z,4.20
2018-08-28T15:56:44.564Z,4.80
2018-08-28T15:59:14.891Z,4.23
2018-08-28T16:01:45.368Z,3.93
2018-08-28T16:04:19.925Z,4.37
2018-08-28T16:06:52.048Z,4.40
2018-08-28T16:09:22.344Z,3.70
2018-08-28T16:11:52.963Z,4.07
2018-08-28T16:14:23.324Z,3.77
2018-08-28T16:16:53.564Z,4.00
2018-08-28T16:19:23.944Z,3.90
2018-08-28T16:21:56.197Z,3.87
2018-08-28T16:24:26.725Z,3.63
2018-08-28T16:26:57.060Z,4.20
2018-08-28T16:29:27.644Z,4.40
2018-08-28T16:31:58.032Z,3.87
2018-08-28T16:34:28.276Z,4.43
2018-08-28T16:36:58.779Z,4.20
2018-08-28T16:39:29.172Z,4.10
2018-08-28T16:41:59.629Z,4.90
2018-08-28T16:44:29.993Z,4.17
2018-08-28T16:47:00.505Z,4.23
2018-08-28T16:49:30.980Z,4.20
2018-08-28T16:52:01.501Z,3.73
2018-08-28T16:54:31.952Z,4.83
2018-08-28T16:57:02.393Z,4.50
2018-08-28T16:59:32.590Z,4.40
2018-08-28T17:02:02.988Z,4.03
2018-08-28T17:04:33.369Z,4.20
2018-08-28T17:07:03.648Z,4.03
2018-08-28T17:09:34.142Z,4.20
2018-08-28T17:12:04.609Z,4.50
2018-08-28T17:14:35.221Z,4.67
2018-08-28T17:17:05.879Z,3.67
2018-08-28T17:19:36.124Z,4.30
2018-08-28T17:22:06.621Z,3.83
2018-08-28T17:24:37.007Z,3.80
2018-08-28T17:27:08.061Z,4.17
2018-08-28T17:29:38.573Z,3.90
2018-08-28T17:32:09.177Z,4.13
2018-08-28T17:34:39.839Z,4.30
2018-08-28T17:37:10.486Z,4.07
2018-08-28T17:39:41.076Z,4.43
2018-08-28T17:42:11.361Z,4.27
2018-08-28T17:44:41.896Z,4.77
2018-08-28T17:47:12.454Z,3.93
2018-08-28T17:49:42.863Z,4.67
2018-08-28T17:52:13.548Z,4.30
2018-08-28T17:54:43.930Z,4.53
2018-08-28T17:57:14.209Z,4.43
2018-08-28T17:59:44.673Z,4.07
2018-08-28T18:02:15.267Z,4.43
2018-08-28T18:04:45.744Z,4.20
2018-08-28T18:07:16.341Z,4.10
2018-08-28T18:09:46.631Z,3.60
2018-08-28T18:12:16.984Z,4.40
2018-08-28T18:14:47.481Z,4.27
2018-08-28T18:17:18.063Z,3.83
2018-08-28T18:19:48.588Z,4.07
2018-08-28T18:22:19.130Z,3.77
2018-08-28T18:24:49.476Z,4.90
2018-08-28T18:27:20.006Z,4.00
2018-08-28T18:29:50.536Z,4.00
2018-08-28T18:32:21.296Z,5.33
2018-08-28T18:34:51.603Z,5.00
2018-08-28T18:37:22.141Z,3.87
2018-08-28T18:39:52.582Z,4.10
2018-08-28T18:42:23.087Z,3.80
2018-08-28T18:44:53.686Z,4.10
2018-08-28T18:47:24.303Z,3.60
2018-08-28T18:49:54.765Z,4.67
2018-08-28T18:52:25.336Z,5.20
2018-08-28T18:54:55.900Z,4.30
2018-08-28T18:57:26.269Z,4.63
2018-08-28T18:59:56.681Z,4.57
2018-08-28T19:02:27.568Z,4.43
2018-08-28T19:04:58.222Z,4.47
2018-08-28T19:07:29.404Z,4.37
2018-08-28T19:10:00.134Z,4.10
2018-08-28T19:12:30.950Z,4.20
2018-08-28T19:15:01.760Z,4.13
2018-08-28T19:17:32.393Z,4.63
2018-08-28T19:20:03.164Z,4.33
2018-08-28T19:22:34.175Z,4.23
2018-08-28T19:25:04.945Z,4.03
2018-08-28T19:27:35.782Z,4.10
2018-08-28T19:30:06.890Z,4.73
2018-08-28T19:32:37.436Z,4.50
2018-08-28T19:35:08.539Z,4.53
2018-08-28T19:37:39.285Z,5.27
2018-08-28T19:40:09.917Z,4.17
2018-08-28T19:42:40.433Z,4.80
2018-08-28T19:45:10.988Z,5.10
2018-08-28T19:47:41.372Z,4.50
2018-08-28T19:50:11.812Z,4.20
2018-08-28T19:52:42.219Z,3.90
2018-08-28T19:55:12.565Z,4.37
2018-08-28T19:57:42.952Z,4.23
2018-08-28T20:00:13.040Z,5.23
2018-08-28T20:02:43.287Z,4.63
2018-08-28T20:05:13.297Z,4.50
2018-08-28T20:07:43.726Z,4.23
2018-08-28T20:10:14.175Z,4.60
2018-08-28T20:12:44.729Z,4.93
2018-08-28T20:15:15.360Z,4.30
2018-08-28T20:17:45.819Z,4.80
2018-08-28T20:20:16.080Z,4.27
2018-08-28T20:22:46.319Z,4.13
2018-08-28T20:25:16.728Z,4.17
2018-08-28T20:27:47.963Z,5.20
2018-08-28T20:30:18.393Z,4.47
2018-08-28T20:32:48.971Z,4.63
2018-08-28T20:35:19.389Z,4.13
2018-08-28T20:37:49.767Z,4.10
2018-08-28T20:40:20.205Z,3.83
2018-08-28T20:42:50.688Z,4.40
2018-08-28T20:45:21.177Z,4.67
2018-08-28T20:47:51.663Z,4.47
2018-08-28T20:50:22.147Z,4.27
2018-08-28T20:52:52.589Z,4.70
2018-08-28T20:55:22.996Z,4.43
2018-08-28T20:57:53.508Z,4.43
2018-08-28T21:00:24.004Z,4.50
2018-08-28T21:02:54.559Z,4.40
2018-08-28T21:05:30.145Z,4.40
2018-08-28T21:08:01.503Z,4.50
2018-08-28T21:10:32.132Z,4.80
2018-08-28T21:13:02.723Z,4.87
2018-08-28T21:15:32.965Z,4.60
2018-08-28T21:18:04.167Z,4.63
2018-08-28T21:20:34.623Z,4.53
2018-08-28T21:23:05.791Z,4.27
2018-08-28T21:25:36.288Z,4.40
2018-08-28T21:28:06.673Z,4.23
2018-08-28T21:30:37.161Z,4.50
2018-08-28T21:33:07.840Z,4.97
2018-08-28T21:35:38.064Z,4.40
2018-08-28T21:38:08.457Z,4.90
2018-08-28T21:40:38.856Z,4.40
2018-08-28T21:43:09.392Z,4.17
2018-08-28T21:45:39.680Z,5.17
2018-08-28T21:48:10.063Z,5.23
2018-08-28T21:50:40.584Z,4.90
2018-08-28T21:53:11.043Z,4.90
2018-08-28T21:55:41.446Z,4.83
2018-08-28T21:58:11.908Z,4.73
2018-08-28T22:00:42.505Z,4.63
2018-08-28T22:03:12.832Z,4.60
2018-08-28T22:05:43.165Z,4.30
2018-08-28T22:08:14.300Z,4.80
2018-08-28T22:10:44.858Z,4.70
2018-08-28T22:13:15.420Z,4.20
2018-08-28T22:15:49.150Z,4.33
2018-08-28T22:18:19.692Z,4.30
2018-08-28T22:20:56.340Z,4.63
2018-08-28T22:23:27.270Z,5.50
2018-08-28T22:25:57.793Z,4.40
2018-08-28T22:28:28.286Z,5.17
2018-08-28T22:30:58.649Z,5.27
2018-08-28T22:33:29.027Z,5.63
2018-08-28T22:35:59.591Z,5.20
2018-08-28T22:38:29.911Z,5.47
2018-08-28T22:41:00.595Z,5.00
2018-08-28T22:43:31.085Z,5.13
2018-08-28T22:46:01.313Z,5.17
2018-08-28T22:48:31.604Z,5.33
2018-08-28T22:51:02.100Z,5.00
2018-08-28T22:53:32.602Z,4.77
2018-08-28T22:56:02.849Z,5.27
2018-08-28T22:58:33.225Z,4.37
2018-08-28T23:01:03.819Z,4.53
2018-08-28T23:03:34.221Z,4.70
2018-08-28T23:06:04.460Z,5.10
2018-08-28T23:08:34.747Z,5.10
2018-08-28T23:11:05.334Z,4.80
2018-08-28T23:13:35.669Z,5.00
2018-08-28T23:16:05.878Z,4.77
2018-08-28T23:18:36.440Z,4.90
2018-08-28T23:21:07.003Z,4.73
2018-08-28T23:23:37.383Z,5.23
2018-08-28T23:26:07.807Z,4.47
2018-08-28T23:28:37.963Z,5.40
2018-08-28T23:31:08.369Z,5.43
2018-08-28T23:33:38.848Z,4.70
2018-08-28T23:36:09.339Z,5.00
2018-08-28T23:38:39.940Z,5.77
2018-08-28T23:41:10.259Z,4.97
2018-08-28T23:43:40.572Z,5.03
2018-08-28T23:46:11.061Z,5.20
2018-08-28T23:48:41.581Z,4.70
2018-08-28T23:51:12.232Z,5.27
2018-08-28T23:53:42.832Z,5.10
2018-08-28T23:56:13.073Z,4.80
2018-08-28T23:58:43.465Z,5.43
